createdAt,value
2022-08-03T00:01:49.448Z,21.70
2022-08-03T00:03:53.866Z,21.72
2022-08-03T00:06:03.929Z,21.73
2022-08-03T00:08:08.086Z,21.73
2022-08-03T00:10:11.883Z,21.66
2022-08-03T00:12:15.129Z,21.62
2022-08-03T00:14:18.321Z,21.63
2022-08-03T00:16:21.643Z,21.64
2022-08-03T00:18:26.436Z,21.66
2022-08-03T00:20:31.294Z,21.68
2022-08-03T00:22:36.126Z,21.70
2022-08-03T00:24:39.069Z,21.64
2022-08-03T00:26:42.200Z,21.67
2022-08-03T00:28:45.465Z,21.64
2022-08-03T00:30:48.452Z,21.63
2022-08-03T00:32:58.648Z,21.57
2022-08-03T00:35:08.346Z,21.58
2022-08-03T00:37:14.223Z,21.60
2022-08-03T00:39:17.245Z,21.54
2022-08-03T00:41:20.191Z,21.54
2022-08-03T00:43:26.746Z,21.56
2022-08-03T00:45:31.140Z,21.56
2022-08-03T00:47:34.211Z,21.59
2022-08-03T00:49:37.294Z,21.54
2022-08-03T00:51:40.235Z,21.55
2022-08-03T00:53:45.786Z,21.56
2022-08-03T00:55:48.982Z,21.58
2022-08-03T00:57:52.168Z,21.55
2022-08-03T00:59:55.642Z,21.52
2022-08-03T01:01:59.677Z,21.52
2022-08-03T01:04:02.821Z,21.48
2022-08-03T01:06:12.913Z,21.48
2022-08-03T01:08:22.360Z,21.42
2022-08-03T01:10:33.559Z,21.42
2022-08-03T01:12:38.983Z,21.30
2022-08-03T01:14:47.955Z,21.32
2022-08-03T01:16:57.274Z,21.33
2022-08-03T01:19:04.561Z,21.35
2022-08-03T01:21:19.305Z,21.31
2022-08-03T01:23:39.019Z,21.31
2022-08-03T01:25:56.997Z,21.32
2022-08-03T01:28:22.919Z,21.34
2022-08-03T01:30:31.538Z,21.34
2022-08-03T01:33:01.131Z,21.34
2022-08-03T01:35:06.622Z,21.25
2022-08-03T01:37:10.555Z,21.29
2022-08-03T01:39:13.798Z,21.28
2022-08-03T01:41:19.765Z,21.25
2022-08-03T01:44:26.538Z,21.28
2022-08-03T01:45:52.848Z,21.27
2022-08-03T01:47:56.489Z,21.26
2022-08-03T01:49:59.805Z,21.24
2022-08-03T01:52:14.563Z,21.20
2022-08-03T01:54:18.060Z,21.17
2022-08-03T01:56:21.521Z,21.13
2022-08-03T01:58:25.776Z,21.13
2022-08-03T02:00:28.960Z,21.09
2022-08-03T02:02:34.761Z,21.08
2022-08-03T02:04:39.878Z,21.00
2022-08-03T02:07:02.903Z,20.86
2022-08-03T02:09:07.491Z,20.92
2022-08-03T02:11:13.957Z,20.92
2022-08-03T02:13:18.378Z,20.83
2022-08-03T02:15:21.668Z,20.80
2022-08-03T02:17:39.779Z,20.82
2022-08-03T02:19:45.170Z,20.76
2022-08-03T02:21:56.391Z,20.79
2022-08-03T02:24:05.380Z,20.80
2022-08-03T02:26:16.644Z,20.80
2022-08-03T02:28:21.185Z,20.65
2022-08-03T02:30:27.258Z,20.66
2022-08-03T02:32:31.741Z,20.70
2022-08-03T02:34:36.496Z,20.71
2022-08-03T02:36:42.460Z,20.70
2022-08-03T02:38:45.879Z,20.70
2022-08-03T02:40:51.103Z,20.72
2022-08-03T02:42:57.558Z,20.73
2022-08-03T02:45:03.814Z,20.72
2022-08-03T02:47:09.462Z,20.69
2022-08-03T02:49:40.848Z,20.69
2022-08-03T02:51:37.784Z,20.68
2022-08-03T02:53:42.278Z,20.66
2022-08-03T02:55:46.212Z,20.53
2022-08-03T02:57:49.716Z,20.39
2022-08-03T02:59:53.389Z,20.42
2022-08-03T03:01:56.798Z,20.47
2022-08-03T03:04:01.548Z,20.45
2022-08-03T03:06:05.695Z,20.29
2022-08-03T03:08:17.674Z,20.40
2022-08-03T03:10:24.143Z,20.42
2022-08-03T03:12:27.485Z,20.39
2022-08-03T03:14:33.971Z,20.38
2022-08-03T03:16:37.629Z,20.23
2022-08-03T03:18:41.181Z,20.30
2022-08-03T03:20:44.637Z,20.32
2022-08-03T03:22:49.642Z,20.33
2022-08-03T03:24:53.492Z,20.32
2022-08-03T03:26:58.322Z,20.32
2022-08-03T03:29:03.836Z,20.34
2022-08-03T03:31:10.291Z,20.21
2022-08-03T03:33:13.943Z,20.26
2022-08-03T03:35:17.609Z,20.29
2022-08-03T03:37:20.617Z,20.25
2022-08-03T03:39:23.598Z,20.30
2022-08-03T03:41:26.746Z,20.30
2022-08-03T03:43:31.392Z,20.28
2022-08-03T03:45:35.893Z,20.31
2022-08-03T03:47:39.268Z,20.25
2022-08-03T03:49:42.901Z,20.30
2022-08-03T03:51:45.827Z,20.33
2022-08-03T03:53:58.824Z,20.34
2022-08-03T03:56:03.106Z,20.37
2022-08-03T03:58:06.773Z,20.37
2022-08-03T04:00:12.881Z,20.39
2022-08-03T04:02:16.657Z,20.38
2022-08-03T04:04:37.064Z,20.39
2022-08-03T04:06:57.349Z,20.28
2022-08-03T04:09:15.794Z,20.37
2022-08-03T04:11:29.218Z,20.40
2022-08-03T04:13:38.338Z,20.39
2022-08-03T04:15:43.260Z,20.31
2022-08-03T04:17:47.020Z,20.28
2022-08-03T04:19:52.955Z,20.21
2022-08-03T04:21:58.895Z,20.06
2022-08-03T04:24:04.312Z,20.13
2022-08-03T04:26:12.440Z,20.13
2022-08-03T04:31:52.092Z,20.26
2022-08-03T04:33:55.731Z,20.29
2022-08-03T04:36:02.653Z,20.36
2022-08-03T04:38:08.854Z,20.28
2022-08-03T04:40:15.512Z,20.36
2022-08-03T04:42:20.488Z,20.35
2022-08-03T04:44:28.305Z,20.42
2022-08-03T04:46:34.439Z,20.43
2022-08-03T04:48:42.307Z,20.36
2022-08-03T04:50:47.741Z,20.49
2022-08-03T04:52:51.042Z,20.43
2022-08-03T04:54:54.340Z,20.28
2022-08-03T04:56:57.375Z,20.38
2022-08-03T04:59:00.358Z,20.50
2022-08-03T05:01:05.508Z,20.60
2022-08-03T05:03:20.542Z,20.67
2022-08-03T05:05:37.863Z,20.72
2022-08-03T05:07:53.101Z,20.90
2022-08-03T05:09:57.691Z,21.03
2022-08-03T05:12:05.553Z,21.31
2022-08-03T05:14:08.559Z,21.70
2022-08-03T05:16:12.092Z,21.94
2022-08-03T05:18:15.110Z,22.24
2022-08-03T05:20:18.935Z,22.45
2022-08-03T05:22:23.846Z,22.68
2022-08-03T05:24:27.309Z,22.80
2022-08-03T05:26:30.441Z,22.89
2022-08-03T05:28:33.479Z,23.16
2022-08-03T05:30:37.519Z,23.45
2022-08-03T05:32:40.558Z,23.67
2022-08-03T05:34:44.029Z,23.98
2022-08-03T05:36:47.130Z,24.28
2022-08-03T05:38:51.577Z,24.53
2022-08-03T05:40:57.394Z,24.71
2022-08-03T05:43:18.000Z,24.93
2022-08-03T05:45:25.375Z,24.99
2022-08-03T05:47:30.990Z,25.23
2022-08-03T05:49:34.055Z,25.40
2022-08-03T05:51:37.180Z,25.64
2022-08-03T05:53:40.764Z,25.99
2022-08-03T05:55:45.209Z,26.25
2022-08-03T05:57:49.291Z,26.30
2022-08-03T05:59:54.606Z,26.91
2022-08-03T06:02:01.875Z,27.19
2022-08-03T06:04:05.226Z,27.50
2022-08-03T06:06:08.308Z,27.83
2022-08-03T06:08:11.329Z,28.08
2022-08-03T06:10:35.857Z,28.22
2022-08-03T06:12:42.482Z,28.22
2022-08-03T06:14:45.630Z,28.08
2022-08-03T06:16:50.513Z,27.75
2022-08-03T06:18:53.563Z,27.97
2022-08-03T06:20:56.790Z,28.21
2022-08-03T06:23:01.202Z,27.99
2022-08-03T06:25:07.347Z,27.95
2022-08-03T06:27:12.907Z,27.75
2022-08-03T06:29:17.565Z,27.88
2022-08-03T06:31:20.704Z,28.23
2022-08-03T06:33:25.444Z,28.42
2022-08-03T06:35:48.490Z,28.72
2022-08-03T06:37:52.367Z,28.88
2022-08-03T06:39:55.529Z,28.48
2022-08-03T06:41:58.777Z,28.39
2022-08-03T06:44:03.096Z,28.40
2022-08-03T06:46:08.885Z,28.20
2022-08-03T06:48:12.826Z,28.51
2022-08-03T06:50:16.843Z,28.48
2022-08-03T06:52:37.744Z,27.81
2022-08-03T06:54:41.236Z,28.03
2022-08-03T06:56:44.413Z,28.14
2022-08-03T06:58:48.804Z,28.56
2022-08-03T07:00:51.928Z,28.32
2022-08-03T07:02:58.434Z,28.99
2022-08-03T07:05:01.767Z,29.25
2022-08-03T07:07:05.107Z,29.78
2022-08-03T07:09:08.114Z,30.18
2022-08-03T07:11:11.107Z,30.18
2022-08-03T07:13:14.351Z,30.09
2022-08-03T07:15:20.548Z,29.82
2022-08-03T07:17:41.379Z,30.04
2022-08-03T07:19:45.819Z,30.42
2022-08-03T07:21:48.834Z,30.19
2022-08-03T07:23:51.824Z,30.61
2022-08-03T07:25:54.856Z,31.25
2022-08-03T07:27:57.971Z,30.33
2022-08-03T07:30:01.358Z,30.74
2022-08-03T07:32:04.654Z,31.21
2022-08-03T07:34:07.678Z,30.83
2022-08-03T07:36:12.178Z,31.05
2022-08-03T07:38:16.327Z,30.98
2022-08-03T07:40:19.329Z,31.21
2022-08-03T07:42:23.422Z,31.05
2022-08-03T07:44:26.417Z,31.11
2022-08-03T07:46:29.404Z,31.30
2022-08-03T07:48:32.433Z,31.95
2022-08-03T07:50:35.480Z,31.75
2022-08-03T07:52:53.514Z,32.18
2022-08-03T07:54:56.557Z,32.66
2022-08-03T07:56:59.629Z,32.93
2022-08-03T07:59:03.154Z,33.29
2022-08-03T08:01:08.828Z,33.60
2022-08-03T08:03:13.224Z,33.76
2022-08-03T08:05:16.283Z,32.63
2022-08-03T08:07:19.479Z,33.35
2022-08-03T08:09:25.623Z,32.32
2022-08-03T08:11:33.987Z,32.04
2022-08-03T08:13:39.919Z,32.11
2022-08-03T08:15:42.984Z,32.40
2022-08-03T08:17:48.549Z,32.38
2022-08-03T08:19:53.341Z,32.84
2022-08-03T08:22:02.361Z,32.57
2022-08-03T08:24:13.285Z,32.10
2022-08-03T08:26:22.598Z,32.08
2022-08-03T08:28:32.916Z,32.53
2022-08-03T08:30:36.927Z,32.75
2022-08-03T08:32:41.603Z,31.47
2022-08-03T08:34:45.233Z,31.86
2022-08-03T08:36:50.773Z,31.89
2022-08-03T08:38:53.754Z,31.03
2022-08-03T08:40:56.875Z,30.94
2022-08-03T08:43:01.279Z,31.51
2022-08-03T08:45:06.579Z,31.51
2022-08-03T08:47:10.848Z,31.95
2022-08-03T08:49:18.624Z,31.78
2022-08-03T08:51:23.112Z,31.39
2022-08-03T08:53:30.343Z,31.25
2022-08-03T08:55:58.367Z,31.39
2022-08-03T08:58:00.098Z,31.39
2022-08-03T09:00:06.426Z,31.60
2022-08-03T09:02:09.444Z,32.01
2022-08-03T09:04:13.680Z,32.48
2022-08-03T09:06:17.622Z,32.52
2022-08-03T09:08:20.678Z,32.29
2022-08-03T09:10:23.728Z,32.00
2022-08-03T09:12:42.856Z,32.08
2022-08-03T09:15:07.277Z,32.27
2022-08-03T09:17:17.317Z,32.22
2022-08-03T09:19:20.564Z,32.60
2022-08-03T09:21:33.556Z,32.31
2022-08-03T09:24:01.919Z,32.53
2022-08-03T09:26:09.151Z,32.39
2022-08-03T09:28:13.981Z,32.88
2022-08-03T09:30:38.171Z,32.35
2022-08-03T09:32:43.070Z,32.47
2022-08-03T09:34:46.161Z,32.61
2022-08-03T09:36:50.546Z,32.74
2022-08-03T09:39:03.821Z,32.60
2022-08-03T09:41:19.277Z,32.61
2022-08-03T09:43:23.748Z,32.59
2022-08-03T09:45:27.783Z,33.03
2022-08-03T09:47:32.184Z,32.98
2022-08-03T09:49:36.729Z,32.93
2022-08-03T09:52:33.116Z,33.04
2022-08-03T09:54:05.576Z,33.39
2022-08-03T09:56:35.859Z,33.63
2022-08-03T09:58:33.886Z,33.74
2022-08-03T10:00:55.045Z,33.50
2022-08-03T10:03:05.329Z,33.57
2022-08-03T10:05:11.276Z,33.78
2022-08-03T10:07:24.206Z,34.36
2022-08-03T10:09:27.179Z,34.05
2022-08-03T10:11:31.356Z,33.99
2022-08-03T10:13:35.381Z,33.61
2022-08-03T10:16:22.545Z,33.60
2022-08-03T10:18:01.555Z,33.77
2022-08-03T10:20:06.917Z,33.16
2022-08-03T10:22:14.484Z,33.41
2022-08-03T10:24:18.993Z,33.00
2022-08-03T10:26:24.026Z,33.55
2022-08-03T10:28:28.225Z,33.47
2022-08-03T10:30:34.151Z,33.40
2022-08-03T10:32:57.901Z,34.04
2022-08-03T10:35:20.372Z,34.51
2022-08-03T10:37:28.172Z,34.91
2022-08-03T10:39:31.696Z,35.13
2022-08-03T10:41:40.738Z,34.40
2022-08-03T10:43:49.605Z,34.14
2022-08-03T10:45:53.094Z,34.27
2022-08-03T10:47:57.602Z,34.30
2022-08-03T10:50:00.975Z,34.31
2022-08-03T10:52:11.192Z,34.17
2022-08-03T10:55:03.220Z,34.73
2022-08-03T10:57:24.440Z,35.02
2022-08-03T11:00:00.806Z,34.86
2022-08-03T11:02:08.284Z,34.70
2022-08-03T11:04:18.797Z,34.71
2022-08-03T11:06:22.884Z,34.93
2022-08-03T11:08:34.770Z,35.35
2022-08-03T11:10:42.248Z,35.72
2022-08-03T11:12:45.852Z,35.29
2022-08-03T11:14:50.329Z,35.71
2022-08-03T11:17:14.512Z,35.59
2022-08-03T11:19:22.415Z,35.62
2022-08-03T11:21:58.609Z,35.81
2022-08-03T11:24:02.477Z,35.11
2022-08-03T11:26:14.412Z,35.32
2022-08-03T11:28:28.068Z,34.74
2022-08-03T11:30:31.507Z,35.33
2022-08-03T11:32:52.768Z,35.37
2022-08-03T11:35:11.904Z,35.37
2022-08-03T11:37:28.742Z,34.81
2022-08-03T11:39:40.313Z,35.06
2022-08-03T11:41:45.182Z,35.51
2022-08-03T11:43:48.899Z,35.54
2022-08-03T11:45:59.104Z,35.77
2022-08-03T11:48:12.193Z,36.05
2022-08-03T11:50:17.191Z,36.40
2022-08-03T11:52:27.210Z,36.49
2022-08-03T11:54:31.733Z,36.25
2022-08-03T11:56:47.088Z,35.98
2022-08-03T11:59:00.775Z,36.13
2022-08-03T12:01:21.219Z,36.44
2022-08-03T12:03:26.110Z,36.44
2022-08-03T12:05:40.991Z,36.70
2022-08-03T12:08:03.256Z,36.83
2022-08-03T12:10:08.391Z,36.59
2022-08-03T12:12:17.317Z,35.60
2022-08-03T12:14:49.466Z,35.61
2022-08-03T12:16:48.558Z,36.01
2022-08-03T12:18:56.704Z,35.94
2022-08-03T12:21:08.641Z,35.94
2022-08-03T12:23:12.168Z,35.26
2022-08-03T12:25:39.423Z,35.38
2022-08-03T12:27:44.260Z,35.40
2022-08-03T12:29:57.222Z,35.98
2022-08-03T12:32:02.286Z,35.96
2022-08-03T12:34:07.147Z,35.34
2022-08-03T12:36:11.368Z,35.44
2022-08-03T12:38:14.793Z,35.72
2022-08-03T12:40:28.184Z,35.96
2022-08-03T12:42:31.541Z,36.21
2022-08-03T12:44:37.161Z,36.50
2022-08-03T12:46:47.091Z,36.57
2022-08-03T12:49:11.171Z,36.42
2022-08-03T12:51:14.274Z,36.82
2022-08-03T12:53:29.838Z,36.95
2022-08-03T12:55:57.043Z,37.00
2022-08-03T12:57:58.975Z,36.89
2022-08-03T13:00:21.721Z,36.82
2022-08-03T13:02:32.371Z,36.58
2022-08-03T13:04:37.263Z,36.42
2022-08-03T13:06:40.249Z,36.61
2022-08-03T13:08:44.418Z,36.28
2022-08-03T13:10:47.441Z,36.20
2022-08-03T13:12:51.462Z,36.27
2022-08-03T13:14:56.818Z,36.28
2022-08-03T13:17:01.495Z,36.67
2022-08-03T13:19:04.508Z,36.49
2022-08-03T13:21:10.528Z,36.01
2022-08-03T13:23:22.703Z,36.04
2022-08-03T13:25:25.993Z,35.58
2022-08-03T13:28:03.722Z,35.22
2022-08-03T13:29:53.383Z,35.32
2022-08-03T13:31:56.445Z,34.44
2022-08-03T13:34:00.811Z,35.26
2022-08-03T13:36:06.232Z,35.78
2022-08-03T13:38:09.986Z,35.85
2022-08-03T13:40:13.292Z,35.90
2022-08-03T13:42:17.871Z,36.38
2022-08-03T13:44:29.419Z,35.41
2022-08-03T13:46:32.878Z,35.45
2022-08-03T13:48:38.846Z,35.41
2022-08-03T13:50:43.379Z,34.96
2022-08-03T13:52:46.768Z,35.35
2022-08-03T13:54:49.890Z,35.69
2022-08-03T13:56:55.816Z,35.86
2022-08-03T13:59:02.003Z,35.94
2022-08-03T14:01:07.714Z,35.98
2022-08-03T14:03:14.710Z,36.13
2022-08-03T14:05:18.146Z,36.44
2022-08-03T14:07:22.577Z,36.79
2022-08-03T14:09:25.643Z,36.61
2022-08-03T14:12:05.244Z,36.79
2022-08-03T14:13:51.804Z,36.71
2022-08-03T14:15:55.628Z,36.87
2022-08-03T14:17:59.489Z,36.73
2022-08-03T14:20:03.516Z,36.76
2022-08-03T14:22:26.763Z,36.37
2022-08-03T14:24:29.753Z,36.03
2022-08-03T14:26:32.732Z,36.30
2022-08-03T14:28:36.004Z,36.39
2022-08-03T14:30:39.062Z,36.43
2022-08-03T14:32:42.131Z,36.07
2022-08-03T14:34:45.124Z,35.94
2022-08-03T14:36:48.208Z,36.25
2022-08-03T14:38:52.708Z,35.92
2022-08-03T14:40:55.829Z,35.56
2022-08-03T14:42:58.875Z,35.42
2022-08-03T14:45:06.023Z,35.24
2022-08-03T14:47:12.568Z,35.51
2022-08-03T14:50:37.583Z,35.78
2022-08-03T14:51:38.616Z,35.45
2022-08-03T14:53:56.145Z,35.44
2022-08-03T14:55:59.581Z,35.38
2022-08-03T14:58:05.675Z,35.13
2022-08-03T15:00:22.950Z,34.63
2022-08-03T15:02:26.300Z,34.45
2022-08-03T15:04:29.290Z,34.22
2022-08-03T15:06:32.552Z,34.24
2022-08-03T15:08:35.492Z,33.92
2022-08-03T15:10:43.730Z,34.16
2022-08-03T15:12:47.938Z,34.25
2022-08-03T15:14:50.950Z,34.25
2022-08-03T15:16:54.290Z,33.87
2022-08-03T15:18:57.309Z,33.98
2022-08-03T15:21:00.246Z,33.49
2022-08-03T15:23:03.792Z,33.60
2022-08-03T15:26:31.914Z,33.62
2022-08-03T15:27:32.318Z,33.84
2022-08-03T15:30:09.021Z,33.67
2022-08-03T15:31:58.481Z,33.79
2022-08-03T15:34:01.620Z,33.90
2022-08-03T15:36:07.852Z,33.74
2022-08-03T15:38:11.248Z,33.85
2022-08-03T15:40:14.405Z,33.86
2022-08-03T15:42:17.358Z,33.70
2022-08-03T15:44:21.812Z,33.78
2022-08-03T15:46:29.591Z,33.85
2022-08-03T15:48:32.999Z,33.95
2022-08-03T15:50:36.126Z,33.87
2022-08-03T15:52:39.293Z,33.97
2022-08-03T15:54:42.696Z,34.08
2022-08-03T15:56:46.004Z,34.11
2022-08-03T15:59:03.834Z,34.14
2022-08-03T16:01:16.462Z,34.10
2022-08-03T16:03:22.689Z,34.10
2022-08-03T16:05:25.717Z,33.97
2022-08-03T16:08:03.658Z,34.01
2022-08-03T16:10:08.397Z,34.01
2022-08-03T16:12:11.857Z,34.10
2022-08-03T16:14:34.460Z,34.01
2022-08-03T16:16:43.748Z,34.00
2022-08-03T16:18:46.643Z,33.68
2022-08-03T16:20:49.666Z,33.88
2022-08-03T16:22:52.770Z,33.79
2022-08-03T16:24:56.070Z,33.76
2022-08-03T16:27:00.734Z,33.69
2022-08-03T16:29:03.987Z,33.57
2022-08-03T16:31:13.827Z,33.37
2022-08-03T16:33:18.395Z,33.35
2022-08-03T16:35:21.425Z,33.47
2022-08-03T16:37:39.800Z,33.45
2022-08-03T16:39:43.233Z,33.45
2022-08-03T16:41:54.328Z,33.40
2022-08-03T16:44:09.781Z,33.44
2022-08-03T16:46:12.988Z,33.41
2022-08-03T16:48:16.461Z,33.39
2022-08-03T16:50:20.994Z,33.25
2022-08-03T16:52:24.580Z,33.27
2022-08-03T16:54:28.119Z,33.27
2022-08-03T16:56:32.541Z,33.22
2022-08-03T16:58:42.209Z,33.19
2022-08-03T17:00:46.461Z,33.17
2022-08-03T17:02:53.117Z,33.08
2022-08-03T17:04:58.110Z,33.02
2022-08-03T17:07:04.637Z,32.85
2022-08-03T17:09:10.179Z,32.72
2022-08-03T17:11:13.531Z,32.59
2022-08-03T17:13:22.401Z,32.54
2022-08-03T17:15:38.293Z,32.42
2022-08-03T17:17:55.987Z,32.35
2022-08-03T17:20:00.451Z,32.36
2022-08-03T17:22:11.096Z,32.37
2022-08-03T17:24:19.890Z,32.39
2022-08-03T17:26:30.417Z,32.31
2022-08-03T17:28:50.237Z,32.31
2022-08-03T17:31:23.394Z,32.27
2022-08-03T17:33:35.775Z,32.20
2022-08-03T17:35:39.008Z,32.09
2022-08-03T17:37:57.744Z,32.09
2022-08-03T17:40:07.034Z,32.07
2022-08-03T17:42:29.371Z,32.02
2022-08-03T17:44:35.271Z,32.02
2022-08-03T17:46:44.505Z,31.96
2022-08-03T17:48:49.958Z,31.95
2022-08-03T17:50:55.898Z,31.86
2022-08-03T17:53:06.714Z,31.86
2022-08-03T17:55:56.823Z,31.83
2022-08-03T17:58:02.559Z,31.82
2022-08-03T18:00:28.757Z,31.79
2022-08-03T18:02:55.044Z,31.76
2022-08-03T18:05:16.432Z,31.72
2022-08-03T18:07:24.340Z,31.67
2022-08-03T18:10:04.497Z,31.66
2022-08-03T18:12:11.954Z,31.63
2022-08-03T18:14:17.727Z,31.61
2022-08-03T18:16:23.693Z,31.58
2022-08-03T18:18:32.719Z,31.46
2022-08-03T18:20:41.785Z,31.44
2022-08-03T18:22:45.488Z,31.30
2022-08-03T18:24:52.326Z,31.16
2022-08-03T18:26:56.038Z,31.06
2022-08-03T18:29:00.287Z,31.01
2022-08-03T18:31:07.597Z,30.93
2022-08-03T18:34:17.260Z,30.81
2022-08-03T18:35:52.960Z,30.72
2022-08-03T18:37:57.495Z,30.64
2022-08-03T18:40:07.477Z,30.58
2022-08-03T18:42:19.526Z,30.49
2022-08-03T18:44:46.459Z,30.42
2022-08-03T18:47:06.871Z,30.35
2022-08-03T18:49:14.138Z,30.32
2022-08-03T18:51:28.756Z,30.26
2022-08-03T18:54:03.897Z,30.25
2022-08-03T18:56:11.015Z,30.24
2022-08-03T18:58:19.402Z,30.18
2022-08-03T19:00:24.355Z,30.13
2022-08-03T19:02:40.595Z,30.11
2022-08-03T19:04:55.151Z,30.06
2022-08-03T19:07:04.191Z,29.97
2022-08-03T19:09:16.865Z,29.93
2022-08-03T19:11:28.121Z,29.91
2022-08-03T19:13:36.835Z,29.85
2022-08-03T19:15:51.255Z,29.79
2022-08-03T19:17:57.335Z,29.70
2022-08-03T19:20:03.231Z,29.73
2022-08-03T19:22:09.527Z,29.72
2022-08-03T19:24:14.407Z,29.67
2022-08-03T19:26:29.885Z,29.66
2022-08-03T19:28:36.590Z,29.47
2022-08-03T19:30:46.484Z,29.32
2022-08-03T19:32:56.819Z,29.27
2022-08-03T19:35:01.558Z,29.03
2022-08-03T19:37:04.797Z,28.87
2022-08-03T19:39:10.026Z,28.88
2022-08-03T19:41:14.903Z,28.87
2022-08-03T19:43:21.266Z,28.80
2022-08-03T19:46:04.704Z,28.66
2022-08-03T19:47:53.785Z,28.52
2022-08-03T19:50:06.201Z,28.44
2022-08-03T19:52:20.866Z,28.39
2022-08-03T19:54:32.115Z,28.34
2022-08-03T19:56:35.579Z,28.34
2022-08-03T19:58:39.620Z,28.30
2022-08-03T20:00:48.736Z,28.23
2022-08-03T20:02:52.187Z,28.19
2022-08-03T20:04:55.917Z,28.12
2022-08-03T20:06:59.602Z,28.00
2022-08-03T20:09:02.685Z,27.95
2022-08-03T20:11:10.485Z,27.96
2022-08-03T20:13:14.524Z,27.89
2022-08-03T20:15:31.736Z,27.81
2022-08-03T20:17:54.701Z,27.70
2022-08-03T20:20:00.023Z,27.53
2022-08-03T20:22:03.121Z,27.45
2022-08-03T20:24:23.687Z,27.37
2022-08-03T20:26:30.357Z,27.28
2022-08-03T20:28:50.136Z,27.17
2022-08-03T20:31:01.856Z,27.11
2022-08-03T20:33:10.823Z,27.04
2022-08-03T20:35:14.333Z,26.99
2022-08-03T20:37:18.375Z,26.89
2022-08-03T20:39:22.750Z,26.86
2022-08-03T20:41:25.846Z,26.86
2022-08-03T20:43:28.865Z,26.87
2022-08-03T20:46:01.009Z,26.83
2022-08-03T20:47:56.167Z,26.76
2022-08-03T20:50:01.819Z,26.71
2022-08-03T20:52:05.465Z,26.70
2022-08-03T20:54:31.077Z,26.63
2022-08-03T20:56:35.986Z,26.61
2022-08-03T20:58:41.575Z,26.55
2022-08-03T21:00:45.084Z,26.48
2022-08-03T21:02:48.046Z,26.42
2022-08-03T21:04:51.094Z,26.42
2022-08-03T21:07:00.713Z,26.20
2022-08-03T21:09:06.841Z,26.22
2022-08-03T21:11:16.825Z,26.24
2022-08-03T21:13:24.872Z,26.26
2022-08-03T21:16:03.188Z,26.22
2022-08-03T21:17:56.265Z,26.05
2022-08-03T21:20:03.369Z,25.92
2022-08-03T21:22:09.812Z,25.90
2022-08-03T21:24:14.701Z,25.89
2022-08-03T21:26:18.884Z,25.93
2022-08-03T21:28:27.570Z,25.82
2022-08-03T21:30:31.726Z,25.85
2022-08-03T21:32:36.238Z,25.78
2022-08-03T21:34:39.381Z,25.64
2022-08-03T21:36:42.680Z,25.62
2022-08-03T21:38:47.577Z,25.69
2022-08-03T21:41:00.668Z,25.66
2022-08-03T21:43:03.781Z,25.49
2022-08-03T21:45:08.705Z,25.48
2022-08-03T21:47:13.262Z,25.52
2022-08-03T21:50:07.203Z,25.42
2022-08-03T21:51:40.503Z,25.32
2022-08-03T21:54:02.659Z,25.41
2022-08-03T21:56:12.187Z,25.47
2022-08-03T21:58:17.658Z,25.40
2022-08-03T22:00:24.055Z,25.43
2022-08-03T22:02:31.402Z,25.31
2022-08-03T22:04:53.885Z,25.28
2022-08-03T22:06:59.084Z,25.33
2022-08-03T22:09:04.261Z,25.38
2022-08-03T22:11:10.843Z,25.34
2022-08-03T22:13:14.900Z,25.22
2022-08-03T22:15:18.129Z,25.03
2022-08-03T22:17:53.461Z,25.03
2022-08-03T22:19:44.833Z,24.83
2022-08-03T22:21:49.615Z,25.00
2022-08-03T22:23:53.992Z,25.00
2022-08-03T22:26:00.498Z,24.90
2022-08-03T22:28:06.098Z,24.96
2022-08-03T22:30:12.601Z,24.97
2022-08-03T22:32:15.887Z,24.72
2022-08-03T22:34:18.935Z,24.79
2022-08-03T22:36:29.983Z,24.70
2022-08-03T22:38:34.009Z,24.48
2022-08-03T22:40:38.964Z,24.40
2022-08-03T22:42:45.992Z,24.48
2022-08-03T22:44:50.775Z,24.57
2022-08-03T22:46:53.756Z,24.29
2022-08-03T22:48:56.856Z,24.41
2022-08-03T22:51:00.876Z,24.48
2022-08-03T22:53:04.328Z,24.23
2022-08-03T22:55:10.072Z,24.32
2022-08-03T22:57:13.890Z,24.36
2022-08-03T22:59:40.935Z,24.34
2022-08-03T23:01:43.818Z,24.25
2022-08-03T23:04:01.092Z,24.32
2022-08-03T23:06:07.861Z,24.14
2022-08-03T23:08:11.180Z,24.10
2022-08-03T23:10:15.643Z,24.19
2022-08-03T23:12:19.734Z,24.22
2022-08-03T23:14:24.503Z,24.13
2022-08-03T23:16:29.605Z,24.20
2022-08-03T23:18:37.339Z,24.12
2022-08-03T23:20:40.843Z,24.16
2022-08-03T23:22:48.817Z,24.19
2022-08-03T23:24:54.800Z,24.14
2022-08-03T23:26:58.771Z,24.06
2022-08-03T23:29:02.674Z,24.10
2022-08-03T23:31:10.141Z,24.03
2022-08-03T23:33:15.250Z,24.07
2022-08-03T23:36:08.991Z,24.09
2022-08-03T23:38:12.185Z,24.08
2022-08-03T23:40:23.776Z,24.04
2022-08-03T23:42:26.910Z,24.06
2022-08-03T23:44:31.589Z,24.02
2022-08-03T23:46:37.260Z,23.96
2022-08-03T23:48:42.537Z,23.95
2022-08-03T23:50:47.192Z,23.91
2022-08-03T23:53:09.252Z,23.80
2022-08-03T23:55:18.333Z,23.84
2022-08-03T23:57:29.221Z,23.83
2022-08-03T23:59:37.960Z,23.81
